sensor_id;sensor_type;location;lat;lon;timestamp;pressure;altitude;pressure_sealevel;temperature;humidity
50710;BME280;37033;49.994;21.992;2022-07-24T00:01:22;99150.98;;;19.52;76.14
50710;BME280;37033;49.994;21.992;2022-07-24T00:04:12;99152.31;;;19.49;76.09
50710;BME280;37033;49.994;21.992;2022-07-24T00:07:02;99145.30;;;19.47;76.18
50710;BME280;37033;49.994;21.992;2022-07-24T00:09:53;99151.86;;;19.45;76.23
50710;BME280;37033;49.994;21.992;2022-07-24T00:12:43;99156.45;;;19.42;76.30
50710;BME280;37033;49.994;21.992;2022-07-24T00:15:34;99160.80;;;19.38;76.34
50710;BME280;37033;49.994;21.992;2022-07-24T00:18:25;99153.96;;;19.36;76.40
50710;BME280;37033;49.994;21.992;2022-07-24T00:21:15;99146.96;;;19.33;76.46
50710;BME280;37033;49.994;21.992;2022-07-24T00:24:06;99158.04;;;19.30;76.53
50710;BME280;37033;49.994;21.992;2022-07-24T00:26:56;99162.05;;;19.26;76.52
50710;BME280;37033;49.994;21.992;2022-07-24T00:29:46;99162.27;;;19.19;76.93
50710;BME280;37033;49.994;21.992;2022-07-24T00:32:37;99165.52;;;19.13;76.97
50710;BME280;37033;49.994;21.992;2022-07-24T00:35:27;99162.65;;;19.10;77.21
50710;BME280;37033;49.994;21.992;2022-07-24T00:38:18;99162.23;;;19.09;77.42
50710;BME280;37033;49.994;21.992;2022-07-24T00:41:08;99170.88;;;19.07;77.39
50710;BME280;37033;49.994;21.992;2022-07-24T00:44:06;99169.92;;;19.04;77.52
50710;BME280;37033;49.994;21.992;2022-07-24T00:46:57;99175.29;;;19.03;77.39
50710;BME280;37033;49.994;21.992;2022-07-24T00:49:47;99182.02;;;19.03;77.47
50710;BME280;37033;49.994;21.992;2022-07-24T00:52:37;99185.69;;;19.01;77.43
50710;BME280;37033;49.994;21.992;2022-07-24T00:55:29;99191.00;;;18.99;77.42
50710;BME280;37033;49.994;21.992;2022-07-24T00:58:20;99189.88;;;18.97;77.46
50710;BME280;37033;49.994;21.992;2022-07-24T01:01:10;99190.08;;;18.95;77.49
50710;BME280;37033;49.994;21.992;2022-07-24T01:04:00;99193.21;;;18.92;77.54
50710;BME280;37033;49.994;21.992;2022-07-24T01:06:50;99198.24;;;18.88;77.68
50710;BME280;37033;49.994;21.992;2022-07-24T01:09:41;99207.67;;;18.84;77.84
50710;BME280;37033;49.994;21.992;2022-07-24T01:12:33;99207.91;;;18.78;77.95
50710;BME280;37033;49.994;21.992;2022-07-24T01:15:24;99205.98;;;18.74;78.18
50710;BME280;37033;49.994;21.992;2022-07-24T01:18:14;99206.45;;;18.73;78.29
50710;BME280;37033;49.994;21.992;2022-07-24T01:21:05;99214.18;;;18.71;78.40
50710;BME280;37033;49.994;21.992;2022-07-24T01:23:55;99207.26;;;18.71;78.55
50710;BME280;37033;49.994;21.992;2022-07-24T01:26:46;99205.67;;;18.70;78.82
50710;BME280;37033;49.994;21.992;2022-07-24T01:29:37;99199.89;;;18.70;78.87
50710;BME280;37033;49.994;21.992;2022-07-24T01:32:28;99191.29;;;18.71;78.90
50710;BME280;37033;49.994;21.992;2022-07-24T01:35:18;99185.94;;;18.71;79.01
50710;BME280;37033;49.994;21.992;2022-07-24T01:38:08;99185.47;;;18.72;79.21
50710;BME280;37033;49.994;21.992;2022-07-24T01:40:59;99189.92;;;18.73;79.38
50710;BME280;37033;49.994;21.992;2022-07-24T01:43:49;99180.86;;;18.74;79.28
50710;BME280;37033;49.994;21.992;2022-07-24T01:46:39;99176.25;;;18.74;79.52
50710;BME280;37033;49.994;21.992;2022-07-24T01:49:30;99178.98;;;18.75;79.68
50710;BME280;37033;49.994;21.992;2022-07-24T01:52:20;99176.40;;;18.79;79.73
50710;BME280;37033;49.994;21.992;2022-07-24T01:55:13;99177.86;;;18.82;80.01
50710;BME280;37033;49.994;21.992;2022-07-24T01:58:04;99177.80;;;18.83;79.99
50710;BME280;37033;49.994;21.992;2022-07-24T02:00:54;99170.88;;;18.85;80.00
50710;BME280;37033;49.994;21.992;2022-07-24T02:03:45;99168.30;;;18.87;80.21
50710;BME280;37033;49.994;21.992;2022-07-24T02:06:36;99174.64;;;18.90;80.40
50710;BME280;37033;49.994;21.992;2022-07-24T02:09:26;99175.77;;;18.91;80.29
50710;BME280;37033;49.994;21.992;2022-07-24T02:12:18;99176.52;;;18.93;80.39
50710;BME280;37033;49.994;21.992;2022-07-24T02:15:10;99177.38;;;18.94;80.47
50710;BME280;37033;49.994;21.992;2022-07-24T02:18:01;99177.09;;;18.95;80.53
50710;BME280;37033;49.994;21.992;2022-07-24T02:20:51;99180.46;;;18.97;80.87
50710;BME280;37033;49.994;21.992;2022-07-24T02:23:41;99175.98;;;18.95;81.01
50710;BME280;37033;49.994;21.992;2022-07-24T02:26:32;99184.30;;;18.95;81.37
50710;BME280;37033;49.994;21.992;2022-07-24T02:29:22;99188.77;;;18.94;81.66
50710;BME280;37033;49.994;21.992;2022-07-24T02:32:13;99189.27;;;18.95;82.54
50710;BME280;37033;49.994;21.992;2022-07-24T02:35:04;99191.14;;;18.94;83.17
50710;BME280;37033;49.994;21.992;2022-07-24T02:37:55;99193.40;;;18.94;82.88
50710;BME280;37033;49.994;21.992;2022-07-24T02:40:45;99195.48;;;18.96;83.25
50710;BME280;37033;49.994;21.992;2022-07-24T02:43:36;99206.17;;;18.94;83.06
50710;BME280;37033;49.994;21.992;2022-07-24T02:46:26;99203.75;;;18.94;83.27
50710;BME280;37033;49.994;21.992;2022-07-24T02:49:16;99201.99;;;18.94;83.14
50710;BME280;37033;49.994;21.992;2022-07-24T02:52:07;99210.29;;;18.93;83.39
50710;BME280;37033;49.994;21.992;2022-07-24T02:54:58;99214.45;;;18.91;83.11
50710;BME280;37033;49.994;21.992;2022-07-24T02:57:48;99221.19;;;18.90;83.36
50710;BME280;37033;49.994;21.992;2022-07-24T03:00:39;99221.77;;;18.88;83.29
50710;BME280;37033;49.994;21.992;2022-07-24T03:03:29;99223.07;;;18.86;83.06
50710;BME280;37033;49.994;21.992;2022-07-24T03:06:19;99229.08;;;18.85;83.06
50710;BME280;37033;49.994;21.992;2022-07-24T03:09:10;99236.58;;;18.85;82.98
50710;BME280;37033;49.994;21.992;2022-07-24T03:12:00;99238.78;;;18.86;82.96
50710;BME280;37033;49.994;21.992;2022-07-24T03:14:50;99235.56;;;18.87;83.12
50710;BME280;37033;49.994;21.992;2022-07-24T03:17:46;99238.23;;;18.88;83.13
50710;BME280;37033;49.994;21.992;2022-07-24T03:20:38;99225.13;;;18.88;82.94
50710;BME280;37033;49.994;21.992;2022-07-24T03:23:28;99228.66;;;18.88;83.00
50710;BME280;37033;49.994;21.992;2022-07-24T03:26:18;99235.83;;;18.86;82.94
50710;BME280;37033;49.994;21.992;2022-07-24T03:29:09;99246.42;;;18.86;83.05
50710;BME280;37033;49.994;21.992;2022-07-24T03:31:59;99254.75;;;18.86;83.00
50710;BME280;37033;49.994;21.992;2022-07-24T03:34:50;99255.61;;;18.87;83.51
50710;BME280;37033;49.994;21.992;2022-07-24T03:37:40;99264.31;;;18.86;83.38
50710;BME280;37033;49.994;21.992;2022-07-24T03:40:31;99266.69;;;18.87;83.81
50710;BME280;37033;49.994;21.992;2022-07-24T03:43:21;99275.21;;;18.87;83.70
50710;BME280;37033;49.994;21.992;2022-07-24T03:46:12;99277.94;;;18.89;83.53
50710;BME280;37033;49.994;21.992;2022-07-24T03:49:02;99279.27;;;18.93;83.83
50710;BME280;37033;49.994;21.992;2022-07-24T03:51:53;99281.38;;;18.95;83.67
50710;BME280;37033;49.994;21.992;2022-07-24T03:54:43;99283.80;;;18.98;83.62
50710;BME280;37033;49.994;21.992;2022-07-24T03:57:33;99286.20;;;19.00;83.87
50710;BME280;37033;49.994;21.992;2022-07-24T04:00:24;99287.63;;;19.01;83.72
50710;BME280;37033;49.994;21.992;2022-07-24T04:03:14;99285.03;;;19.04;83.77
50710;BME280;37033;49.994;21.992;2022-07-24T04:06:06;99297.30;;;19.07;83.72
50710;BME280;37033;49.994;21.992;2022-07-24T04:08:56;99301.46;;;19.09;83.68
50710;BME280;37033;49.994;21.992;2022-07-24T04:11:47;99301.27;;;19.11;83.63
50710;BME280;37033;49.994;21.992;2022-07-24T04:14:37;99303.44;;;19.13;83.69
50710;BME280;37033;49.994;21.992;2022-07-24T04:17:27;99309.52;;;19.16;83.70
50710;BME280;37033;49.994;21.992;2022-07-24T04:20:17;99309.39;;;19.17;83.74
50710;BME280;37033;49.994;21.992;2022-07-24T04:23:08;99310.10;;;19.18;83.63
50710;BME280;37033;49.994;21.992;2022-07-24T04:25:58;99313.92;;;19.20;83.99
50710;BME280;37033;49.994;21.992;2022-07-24T04:28:49;99317.14;;;19.20;83.96
50710;BME280;37033;49.994;21.992;2022-07-24T04:31:39;99318.91;;;19.22;84.05
50710;BME280;37033;49.994;21.992;2022-07-24T04:34:29;99320.61;;;19.23;83.81
50710;BME280;37033;49.994;21.992;2022-07-24T04:37:19;99324.65;;;19.24;83.78
50710;BME280;37033;49.994;21.992;2022-07-24T04:40:12;99323.90;;;19.27;83.75
50710;BME280;37033;49.994;21.992;2022-07-24T04:43:03;99327.13;;;19.28;83.76
50710;BME280;37033;49.994;21.992;2022-07-24T04:45:54;99325.28;;;19.29;83.57
50710;BME280;37033;49.994;21.992;2022-07-24T04:48:45;99327.68;;;19.31;83.71
50710;BME280;37033;49.994;21.992;2022-07-24T04:51:35;99329.15;;;19.32;83.68
50710;BME280;37033;49.994;21.992;2022-07-24T04:54:25;99329.77;;;19.35;83.75
50710;BME280;37033;49.994;21.992;2022-07-24T04:57:16;99334.17;;;19.35;83.51
50710;BME280;37033;49.994;21.992;2022-07-24T05:00:11;99335.25;;;19.37;83.68
50710;BME280;37033;49.994;21.992;2022-07-24T05:03:02;99339.67;;;19.36;83.63
50710;BME280;37033;49.994;21.992;2022-07-24T05:05:52;99342.96;;;19.37;83.53
50710;BME280;37033;49.994;21.992;2022-07-24T05:08:43;99351.17;;;19.37;83.71
50710;BME280;37033;49.994;21.992;2022-07-24T05:11:33;99354.31;;;19.37;83.80
50710;BME280;37033;49.994;21.992;2022-07-24T05:14:23;99355.36;;;19.38;83.48
50710;BME280;37033;49.994;21.992;2022-07-24T05:17:14;99360.41;;;19.39;83.76
50710;BME280;37033;49.994;21.992;2022-07-24T05:20:05;99364.59;;;19.39;83.74
50710;BME280;37033;49.994;21.992;2022-07-24T05:22:56;99367.89;;;19.39;83.66
50710;BME280;37033;49.994;21.992;2022-07-24T05:25:47;99371.42;;;19.40;83.75
50710;BME280;37033;49.994;21.992;2022-07-24T05:28:37;99378.31;;;19.41;83.77
50710;BME280;37033;49.994;21.992;2022-07-24T05:31:27;99377.14;;;19.41;83.86
50710;BME280;37033;49.994;21.992;2022-07-24T05:34:18;99379.16;;;19.42;83.89
50710;BME280;37033;49.994;21.992;2022-07-24T05:37:08;99377.11;;;19.43;83.73
50710;BME280;37033;49.994;21.992;2022-07-24T05:39:58;99386.42;;;19.46;83.52
50710;BME280;37033;49.994;21.992;2022-07-24T05:42:48;99389.17;;;19.50;83.53
50710;BME280;37033;49.994;21.992;2022-07-24T05:45:39;99392.30;;;19.51;83.72
50710;BME280;37033;49.994;21.992;2022-07-24T05:48:30;99395.16;;;19.52;83.77
50710;BME280;37033;49.994;21.992;2022-07-24T05:51:20;99396.70;;;19.53;83.50
50710;BME280;37033;49.994;21.992;2022-07-24T05:54:11;99397.39;;;19.57;83.66
50710;BME280;37033;49.994;21.992;2022-07-24T05:57:02;99397.83;;;19.61;83.58
50710;BME280;37033;49.994;21.992;2022-07-24T05:59:52;99397.67;;;19.67;83.27
50710;BME280;37033;49.994;21.992;2022-07-24T06:02:42;99397.48;;;19.73;83.37
50710;BME280;37033;49.994;21.992;2022-07-24T06:05:34;99396.50;;;19.78;83.13
50710;BME280;37033;49.994;21.992;2022-07-24T06:08:24;99396.29;;;19.82;83.10
50710;BME280;37033;49.994;21.992;2022-07-24T06:11:15;99402.04;;;19.87;83.10
50710;BME280;37033;49.994;21.992;2022-07-24T06:14:06;99405.77;;;19.91;82.91
50710;BME280;37033;49.994;21.992;2022-07-24T06:16:55;99404.25;;;19.93;82.74
50710;BME280;37033;49.994;21.992;2022-07-24T06:19:46;99399.00;;;19.93;82.57
50710;BME280;37033;49.994;21.992;2022-07-24T06:22:36;99403.74;;;19.97;82.64
50710;BME280;37033;49.994;21.992;2022-07-24T06:25:26;99403.73;;;20.01;82.53
50710;BME280;37033;49.994;21.992;2022-07-24T06:28:16;99405.39;;;20.04;82.50
50710;BME280;37033;49.994;21.992;2022-07-24T06:31:06;99406.71;;;20.04;82.30
50710;BME280;37033;49.994;21.992;2022-07-24T06:33:57;99406.47;;;20.05;82.33
50710;BME280;37033;49.994;21.992;2022-07-24T06:36:47;99403.88;;;20.07;82.25
50710;BME280;37033;49.994;21.992;2022-07-24T06:39:37;99402.90;;;20.10;82.03
50710;BME280;37033;49.994;21.992;2022-07-24T06:42:28;99401.89;;;20.15;81.76
50710;BME280;37033;49.994;21.992;2022-07-24T06:45:18;99400.24;;;20.19;81.61
50710;BME280;37033;49.994;21.992;2022-07-24T06:48:08;99408.83;;;20.24;81.56
50710;BME280;37033;49.994;21.992;2022-07-24T06:50:59;99414.71;;;20.28;81.40
50710;BME280;37033;49.994;21.992;2022-07-24T06:53:49;99413.75;;;20.31;81.23
50710;BME280;37033;49.994;21.992;2022-07-24T06:56:40;99415.94;;;20.36;80.99
50710;BME280;37033;49.994;21.992;2022-07-24T06:59:30;99417.66;;;20.38;80.69
50710;BME280;37033;49.994;21.992;2022-07-24T07:02:21;99417.59;;;20.38;80.66
50710;BME280;37033;49.994;21.992;2022-07-24T07:05:12;99417.25;;;20.39;80.40
50710;BME280;37033;49.994;21.992;2022-07-24T07:08:02;99414.52;;;20.41;80.43
50710;BME280;37033;49.994;21.992;2022-07-24T07:10:52;99409.82;;;20.44;80.22
50710;BME280;37033;49.994;21.992;2022-07-24T07:13:43;99416.05;;;20.49;80.13
50710;BME280;37033;49.994;21.992;2022-07-24T07:16:33;99417.98;;;20.57;79.75
50710;BME280;37033;49.994;21.992;2022-07-24T07:19:23;99417.91;;;20.66;79.76
50710;BME280;37033;49.994;21.992;2022-07-24T07:22:14;99416.48;;;20.81;79.71
50710;BME280;37033;49.994;21.992;2022-07-24T07:25:05;99418.41;;;21.00;79.42
50710;BME280;37033;49.994;21.992;2022-07-24T07:27:56;99420.64;;;21.16;79.32
50710;BME280;37033;49.994;21.992;2022-07-24T07:30:46;99419.96;;;21.36;78.92
50710;BME280;37033;49.994;21.992;2022-07-24T07:33:37;99423.48;;;21.45;77.72
50710;BME280;37033;49.994;21.992;2022-07-24T07:36:28;99425.16;;;21.46;77.40
50710;BME280;37033;49.994;21.992;2022-07-24T07:39:18;99422.98;;;21.46;77.05
50710;BME280;37033;49.994;21.992;2022-07-24T07:42:08;99426.18;;;21.42;76.84
50710;BME280;37033;49.994;21.992;2022-07-24T07:44:58;99423.84;;;21.39;76.80
50710;BME280;37033;49.994;21.992;2022-07-24T07:47:49;99421.50;;;21.36;76.74
50710;BME280;37033;49.994;21.992;2022-07-24T07:50:39;99424.66;;;21.41;76.65
50710;BME280;37033;49.994;21.992;2022-07-24T07:53:29;99421.52;;;21.55;76.72
50710;BME280;37033;49.994;21.992;2022-07-24T07:56:19;99418.40;;;21.79;76.49
50710;BME280;37033;49.994;21.992;2022-07-24T07:59:10;99419.71;;;22.07;75.99
50710;BME280;37033;49.994;21.992;2022-07-24T08:02:00;99415.73;;;22.33;75.07
50710;BME280;37033;49.994;21.992;2022-07-24T08:04:50;99421.41;;;22.60;74.83
50710;BME280;37033;49.994;21.992;2022-07-24T08:07:41;99426.30;;;22.79;74.33
50710;BME280;37033;49.994;21.992;2022-07-24T08:10:32;99428.50;;;22.92;73.13
50710;BME280;37033;49.994;21.992;2022-07-24T08:13:22;99425.58;;;22.99;71.88
50710;BME280;37033;49.994;21.992;2022-07-24T08:16:12;99425.75;;;23.11;71.02
50710;BME280;37033;49.994;21.992;2022-07-24T08:19:02;99426.20;;;23.29;70.91
50710;BME280;37033;49.994;21.992;2022-07-24T08:21:53;99429.14;;;23.46;70.10
50710;BME280;37033;49.994;21.992;2022-07-24T08:24:43;99431.88;;;23.56;69.39
50710;BME280;37033;49.994;21.992;2022-07-24T08:27:36;99430.21;;;23.68;68.64
50710;BME280;37033;49.994;21.992;2022-07-24T08:30:27;99428.17;;;23.76;67.89
50710;BME280;37033;49.994;21.992;2022-07-24T08:33:17;99434.26;;;23.75;67.32
50710;BME280;37033;49.994;21.992;2022-07-24T08:36:09;99434.52;;;23.76;67.28
50710;BME280;37033;49.994;21.992;2022-07-24T08:39:00;99440.59;;;23.68;66.36
50710;BME280;37033;49.994;21.992;2022-07-24T08:41:51;99441.94;;;23.44;66.11
50710;BME280;37033;49.994;21.992;2022-07-24T08:44:42;99435.75;;;23.16;66.29
50710;BME280;37033;49.994;21.992;2022-07-24T08:47:32;99433.84;;;23.04;67.04
50710;BME280;37033;49.994;21.992;2022-07-24T08:50:23;99436.27;;;23.12;66.93
50710;BME280;37033;49.994;21.992;2022-07-24T08:53:13;99436.87;;;23.26;66.20
50710;BME280;37033;49.994;21.992;2022-07-24T08:56:03;99430.62;;;23.40;65.89
50710;BME280;37033;49.994;21.992;2022-07-24T08:58:54;99433.09;;;23.57;65.57
50710;BME280;37033;49.994;21.992;2022-07-24T09:01:44;99433.09;;;23.70;64.47
50710;BME280;37033;49.994;21.992;2022-07-24T09:04:37;99435.64;;;23.84;64.29
50710;BME280;37033;49.994;21.992;2022-07-24T09:07:29;99436.33;;;23.82;63.56
50710;BME280;37033;49.994;21.992;2022-07-24T09:10:20;99439.81;;;23.68;62.96
50710;BME280;37033;49.994;21.992;2022-07-24T09:13:18;99440.59;;;23.54;62.74
50710;BME280;37033;49.994;21.992;2022-07-24T09:16:19;99440.14;;;23.69;63.34
50710;BME280;37033;49.994;21.992;2022-07-24T09:19:13;99436.04;;;23.99;63.81
50710;BME280;37033;49.994;21.992;2022-07-24T09:22:05;99437.24;;;24.31;63.74
50710;BME280;37033;49.994;21.992;2022-07-24T09:25:11;99436.77;;;24.67;62.48
50710;BME280;37033;49.994;21.992;2022-07-24T09:28:03;99451.02;;;24.62;60.25
50710;BME280;37033;49.994;21.992;2022-07-24T09:30:53;99459.20;;;24.31;59.50
50710;BME280;37033;49.994;21.992;2022-07-24T09:33:50;99459.61;;;24.03;60.27
50710;BME280;37033;49.994;21.992;2022-07-24T09:36:41;99469.11;;;23.94;60.81
50710;BME280;37033;49.994;21.992;2022-07-24T09:39:34;99472.02;;;23.82;60.77
50710;BME280;37033;49.994;21.992;2022-07-24T09:42:31;99470.86;;;23.73;60.84
50710;BME280;37033;49.994;21.992;2022-07-24T09:45:30;99468.29;;;23.69;61.29
50710;BME280;37033;49.994;21.992;2022-07-24T09:48:50;99473.89;;;23.72;61.73
50710;BME280;37033;49.994;21.992;2022-07-24T09:51:43;99480.10;;;23.77;60.69
50710;BME280;37033;49.994;21.992;2022-07-24T09:54:35;99482.38;;;23.85;59.18
50710;BME280;37033;49.994;21.992;2022-07-24T09:57:27;99482.33;;;23.97;58.18
50710;BME280;37033;49.994;21.992;2022-07-24T10:00:18;99482.69;;;24.15;58.43
50710;BME280;37033;49.994;21.992;2022-07-24T10:03:14;99475.89;;;24.44;58.47
50710;BME280;37033;49.994;21.992;2022-07-24T10:06:10;99475.54;;;24.67;56.54
50710;BME280;37033;49.994;21.992;2022-07-24T10:09:03;99482.20;;;24.73;56.05
50710;BME280;37033;49.994;21.992;2022-07-24T10:11:54;99487.38;;;24.91;55.57
50710;BME280;37033;49.994;21.992;2022-07-24T10:14:49;99480.82;;;25.06;54.64
50710;BME280;37033;49.994;21.992;2022-07-24T10:21:07;99479.10;;;25.14;52.10
50710;BME280;37033;49.994;21.992;2022-07-24T10:24:42;99477.73;;;25.20;51.53
50710;BME280;37033;49.994;21.992;2022-07-24T10:27:39;99483.95;;;25.02;50.80
50710;BME280;37033;49.994;21.992;2022-07-24T10:30:32;99477.90;;;24.82;51.45
50710;BME280;37033;49.994;21.992;2022-07-24T10:33:22;99481.11;;;24.68;52.08
50710;BME280;37033;49.994;21.992;2022-07-24T10:36:19;99481.88;;;24.57;52.64
50710;BME280;37033;49.994;21.992;2022-07-24T10:39:18;99478.34;;;24.55;52.99
50710;BME280;37033;49.994;21.992;2022-07-24T10:42:10;99474.72;;;24.52;52.90
50710;BME280;37033;49.994;21.992;2022-07-24T10:45:17;99476.99;;;24.66;52.95
50710;BME280;37033;49.994;21.992;2022-07-24T10:48:32;99474.21;;;24.95;52.22
50710;BME280;37033;49.994;21.992;2022-07-24T10:51:24;99468.46;;;25.34;52.35
50710;BME280;37033;49.994;21.992;2022-07-24T10:54:19;99474.38;;;25.65;49.87
50710;BME280;37033;49.994;21.992;2022-07-24T10:57:10;99472.85;;;25.68;49.40
50710;BME280;37033;49.994;21.992;2022-07-24T11:00:25;99472.36;;;25.55;49.15
50710;BME280;37033;49.994;21.992;2022-07-24T11:03:20;99472.72;;;25.42;49.31
50710;BME280;37033;49.994;21.992;2022-07-24T11:06:13;99468.67;;;25.16;49.32
50710;BME280;37033;49.994;21.992;2022-07-24T11:09:06;99470.00;;;25.03;49.32
50710;BME280;37033;49.994;21.992;2022-07-24T11:12:07;99463.04;;;25.12;49.59
50710;BME280;37033;49.994;21.992;2022-07-24T11:15:02;99462.11;;;25.39;49.47
50710;BME280;37033;49.994;21.992;2022-07-24T11:18:16;99463.78;;;25.64;48.27
50710;BME280;37033;49.994;21.992;2022-07-24T11:21:07;99458.59;;;25.72;46.06
50710;BME280;37033;49.994;21.992;2022-07-24T11:24:17;99462.04;;;25.84;46.26
50710;BME280;37033;49.994;21.992;2022-07-24T11:27:16;99457.27;;;25.97;45.81
50710;BME280;37033;49.994;21.992;2022-07-24T11:30:09;99449.71;;;26.17;45.21
50710;BME280;37033;49.994;21.992;2022-07-24T11:32:59;99453.96;;;26.36;45.43
50710;BME280;37033;49.994;21.992;2022-07-24T11:35:50;99450.83;;;26.52;44.57
50710;BME280;37033;49.994;21.992;2022-07-24T11:38:40;99447.73;;;26.68;44.15
50710;BME280;37033;49.994;21.992;2022-07-24T11:41:44;99449.54;;;26.83;43.72
50710;BME280;37033;49.994;21.992;2022-07-24T11:44:37;99454.16;;;26.92;40.93
50710;BME280;37033;49.994;21.992;2022-07-24T11:47:29;99454.92;;;26.91;40.58
50710;BME280;37033;49.994;21.992;2022-07-24T11:50:21;99448.32;;;27.02;41.13
50710;BME280;37033;49.994;21.992;2022-07-24T11:53:12;99443.78;;;27.20;40.88
50710;BME280;37033;49.994;21.992;2022-07-24T11:56:07;99440.03;;;27.37;40.34
50710;BME280;37033;49.994;21.992;2022-07-24T11:58:58;99442.02;;;27.59;39.45
50710;BME280;37033;49.994;21.992;2022-07-24T12:01:48;99438.35;;;27.67;39.06
50710;BME280;37033;49.994;21.992;2022-07-24T12:04:39;99436.71;;;27.80;37.90
50710;BME280;37033;49.994;21.992;2022-07-24T12:07:29;99437.83;;;27.69;36.83
50710;BME280;37033;49.994;21.992;2022-07-24T12:10:22;99442.80;;;27.58;37.07
50710;BME280;37033;49.994;21.992;2022-07-24T12:13:12;99437.52;;;27.55;37.27
50710;BME280;37033;49.994;21.992;2022-07-24T12:16:04;99437.33;;;27.57;36.80
50710;BME280;37033;49.994;21.992;2022-07-24T12:18:55;99430.27;;;27.64;37.07
50710;BME280;37033;49.994;21.992;2022-07-24T12:22:00;99428.10;;;27.92;37.75
50710;BME280;37033;49.994;21.992;2022-07-24T12:24:51;99437.39;;;28.04;35.21
50710;BME280;37033;49.994;21.992;2022-07-24T12:27:44;99437.07;;;27.82;35.20
50710;BME280;37033;49.994;21.992;2022-07-24T12:30:37;99438.73;;;27.78;34.76
50710;BME280;37033;49.994;21.992;2022-07-24T12:33:29;99436.34;;;27.75;34.62
50710;BME280;37033;49.994;21.992;2022-07-24T12:36:22;99444.37;;;27.55;34.58
50710;BME280;37033;49.994;21.992;2022-07-24T12:39:16;99445.86;;;27.52;34.71
50710;BME280;37033;49.994;21.992;2022-07-24T12:42:07;99441.59;;;27.58;34.81
50710;BME280;37033;49.994;21.992;2022-07-24T12:45:07;99440.20;;;27.68;35.04
50710;BME280;37033;49.994;21.992;2022-07-24T12:48:10;99441.31;;;27.82;35.21
50710;BME280;37033;49.994;21.992;2022-07-24T12:51:03;99444.91;;;27.71;35.21
50710;BME280;37033;49.994;21.992;2022-07-24T12:53:55;99444.27;;;27.76;35.04
50710;BME280;37033;49.994;21.992;2022-07-24T12:56:46;99443.81;;;27.83;34.41
50710;BME280;37033;49.994;21.992;2022-07-24T12:59:38;99446.94;;;27.81;34.09
50710;BME280;37033;49.994;21.992;2022-07-24T13:02:29;99438.88;;;27.66;34.46
50710;BME280;37033;49.994;21.992;2022-07-24T13:05:37;99437.96;;;27.65;34.84
50710;BME280;37033;49.994;21.992;2022-07-24T13:08:27;99439.77;;;27.78;35.40
50710;BME280;37033;49.994;21.992;2022-07-24T13:11:19;99429.73;;;27.73;35.29
50710;BME280;37033;49.994;21.992;2022-07-24T13:14:11;99438.20;;;27.54;35.52
50710;BME280;37033;49.994;21.992;2022-07-24T13:17:05;99433.65;;;27.32;35.72
50710;BME280;37033;49.994;21.992;2022-07-24T13:19:58;99438.11;;;27.37;36.22
50710;BME280;37033;49.994;21.992;2022-07-24T13:22:51;99435.08;;;27.40;35.86
50710;BME280;37033;49.994;21.992;2022-07-24T13:25:41;99428.84;;;27.45;36.25
50710;BME280;37033;49.994;21.992;2022-07-24T13:28:34;99428.20;;;27.61;36.09
50710;BME280;37033;49.994;21.992;2022-07-24T13:31:26;99429.58;;;27.67;35.66
50710;BME280;37033;49.994;21.992;2022-07-24T13:34:16;99423.10;;;27.73;35.32
50710;BME280;37033;49.994;21.992;2022-07-24T13:37:06;99421.66;;;27.85;35.33
50710;BME280;37033;49.994;21.992;2022-07-24T13:39:57;99429.34;;;27.82;35.36
50710;BME280;37033;49.994;21.992;2022-07-24T13:42:47;99427.08;;;27.86;35.01
50710;BME280;37033;49.994;21.992;2022-07-24T13:45:37;99437.00;;;27.92;34.72
50710;BME280;37033;49.994;21.992;2022-07-24T13:48:28;99432.06;;;27.83;34.96
50710;BME280;37033;49.994;21.992;2022-07-24T13:51:18;99428.45;;;27.82;34.95
50710;BME280;37033;49.994;21.992;2022-07-24T13:54:08;99427.09;;;27.98;35.23
50710;BME280;37033;49.994;21.992;2022-07-24T13:56:59;99421.14;;;27.93;34.91
50710;BME280;37033;49.994;21.992;2022-07-24T13:59:52;99427.58;;;27.76;35.35
50710;BME280;37033;49.994;21.992;2022-07-24T14:02:42;99425.80;;;27.59;35.69
50710;BME280;37033;49.994;21.992;2022-07-24T14:05:32;99430.41;;;27.47;35.27
50710;BME280;37033;49.994;21.992;2022-07-24T14:08:23;99426.61;;;27.16;35.05
50710;BME280;37033;49.994;21.992;2022-07-24T14:11:14;99424.29;;;26.98;35.81
50710;BME280;37033;49.994;21.992;2022-07-24T14:14:05;99424.33;;;26.97;36.12
50710;BME280;37033;49.994;21.992;2022-07-24T14:17:28;99421.77;;;27.04;36.34
50710;BME280;37033;49.994;21.992;2022-07-24T14:20:18;99414.02;;;27.06;36.52
50710;BME280;37033;49.994;21.992;2022-07-24T14:23:09;99414.92;;;27.05;36.65
50710;BME280;37033;49.994;21.992;2022-07-24T14:25:59;99413.67;;;27.08;36.81
50710;BME280;37033;49.994;21.992;2022-07-24T14:28:50;99411.48;;;27.07;36.19
50710;BME280;37033;49.994;21.992;2022-07-24T14:31:40;99402.80;;;26.91;36.19
50710;BME280;37033;49.994;21.992;2022-07-24T14:34:31;99406.73;;;26.82;36.76
50710;BME280;37033;49.994;21.992;2022-07-24T14:37:21;99399.42;;;26.88;36.59
50710;BME280;37033;49.994;21.992;2022-07-24T14:40:12;99395.87;;;27.02;36.13
50710;BME280;37033;49.994;21.992;2022-07-24T14:43:03;99391.67;;;27.18;36.38
50710;BME280;37033;49.994;21.992;2022-07-24T14:45:53;99389.25;;;27.38;35.51
50710;BME280;37033;49.994;21.992;2022-07-24T14:48:45;99388.25;;;27.48;34.86
50710;BME280;37033;49.994;21.992;2022-07-24T14:51:35;99382.61;;;27.49;34.95
50710;BME280;37033;49.994;21.992;2022-07-24T14:54:26;99382.67;;;27.54;34.41
50710;BME280;37033;49.994;21.992;2022-07-24T14:57:17;99379.55;;;27.51;34.68
50710;BME280;37033;49.994;21.992;2022-07-24T15:00:09;99379.51;;;27.46;34.59
50710;BME280;37033;49.994;21.992;2022-07-24T15:03:00;99380.83;;;27.28;34.87